Adak, AK

5:09 AM HDT on August 30, 2016 (GMT -0900)
Adak

Weather History for PADK - November, 2013

Change the Weather History Date:

Saturday, November 9, 2013

  Actual Average Record
Temperature  
Mean Temperature 43 °F -  
Max Temperature 51 °F 43 °F 51 °F (2013)
Min Temperature 35 °F 34 °F 28 °F (1979)
Degree Days  
Heating Degree Days 22    
Moisture  
Dew Point 34 °F    
Average Humidity 75    
Maximum Humidity 87    
Minimum Humidity 58    
Precipitation  
Precipitation 0.15 in - - ()
Sea Level Pressure  
Sea Level Pressure 30.17 in    
Wind  
Wind Speed 24 mph (WSW)    
Max Wind Speed 48 mph    
Max Gust Speed 58 mph    
Visibility 8 miles    
Events      
Averages and records for this station are not official NWS values.
T = Trace of Precipitation, MM = Missing Value Source: NWS Daily Summary

Daily Weather History Graph

Daily Weather History Graph

Search for Another Location

Airport or City:

Trip Planner

Search our weather history database for the weather conditions in past years. The results will help you decide how hot, cold, wet, or windy it might be!

Date:

Astronomy

Nov. 09, 2013 Rise Set
Actual Time 8:56 AM HST 6:03 PM HST
Civil Twilight 8:19 AM HST 6:40 PM HST
Nautical Twilight 7:39 AM HST 7:20 PM HST
Astronomical Twilight 6:59 AM HST 8:00 PM HST
Moon 2:32 PM HST (11/9) No Moon Set
Length of Visible Light 10h 20m
Length of Day
9h 07m
Waxing Crescent, 46% of the Moon is Illuminated
Nov 9
Waxing Crescent
Nov 9
First Quarter
Nov 17
Full
Nov 25
Last Quarter
Dec 2
New

Hourly Weather History & Observations

Time (HST) Temp. Windchill Dew Point Humidity Pressure Visibility Wind Dir Wind Speed Gust Speed Precip Events Conditions
12:36 AM 50.0 °F - 44.6 °F 82% 29.99 in 3.0 mi SSW 35.7 mph 48.3 mph N/A   Overcast
12:56 AM 51.8 °F - 44.6 °F 76% 29.98 in 5.0 mi SSW 48.3 mph 56.4 mph 0.11 in   Overcast
1:16 AM 51.8 °F - 44.6 °F 76% 29.98 in 5.0 mi SSW 40.3 mph 50.6 mph 0.02 in   Overcast
1:36 AM 51.8 °F - 46.4 °F 82% 29.97 in 5.0 mi SSW 38.0 mph 50.6 mph 0.04 in   Overcast
3:16 AM 50.0 °F - 44.6 °F 82% 29.98 in 7.0 mi WSW 40.3 mph 57.5 mph N/A   Mostly Cloudy
3:36 AM 48.2 °F - 44.6 °F 87% 30.00 in 3.0 mi SW 33.4 mph 46.0 mph N/A   Overcast
3:56 AM 48.2 °F - 42.8 °F 82% 30.00 in 4.0 mi SW 36.8 mph 43.7 mph N/A   Overcast
4:16 AM 44.6 °F 35.9 °F 41.0 °F 87% 30.02 in 5.0 mi WSW 23.0 mph 35.7 mph N/A   Overcast
4:36 AM 44.6 °F 36.1 °F 39.2 °F 81% 30.02 in 7.0 mi WSW 21.9 mph 26.5 mph N/A   Overcast
4:56 AM 44.6 °F 36.1 °F 39.2 °F 81% 30.02 in 8.0 mi WSW 21.9 mph 26.5 mph N/A   Overcast
5:16 AM 44.6 °F 36.9 °F 39.2 °F 81% 30.03 in 8.0 mi WSW 18.4 mph 25.3 mph N/A   Mostly Cloudy
5:36 AM 42.8 °F 34.8 °F 39.2 °F 87% 30.03 in 7.0 mi WSW 17.3 mph 21.9 mph N/A   Mostly Cloudy
5:56 AM 42.8 °F 35.4 °F 37.4 °F 81% 30.04 in 7.0 mi SW 15.0 mph 21.9 mph N/A   Overcast
6:16 AM 42.8 °F 37.0 °F 37.4 °F 81% 30.05 in 7.0 mi WSW 10.4 mph - N/A   Overcast
6:36 AM 42.8 °F 37.0 °F 37.4 °F 81% 30.06 in 6.0 mi WSW 10.4 mph - N/A   Overcast
6:56 AM 42.8 °F 34.8 °F 37.4 °F 81% 30.06 in 6.0 mi SW 17.3 mph - N/A   Mostly Cloudy
7:16 AM 42.8 °F 36.2 °F 37.4 °F 81% 30.08 in 8.0 mi WSW 12.7 mph - N/A   Partly Cloudy
7:36 AM 42.8 °F 36.6 °F 37.4 °F 81% 30.08 in 8.0 mi WSW 11.5 mph - N/A   Mostly Cloudy
7:56 AM 41.0 °F 33.9 °F 35.6 °F 81% 30.09 in 7.0 mi SW 12.7 mph - N/A   Overcast
8:16 AM 41.0 °F 33.9 °F 35.6 °F 81% 30.10 in 7.0 mi SW 12.7 mph - N/A   Scattered Clouds
8:36 AM 39.2 °F 32.5 °F 35.6 °F 87% 30.10 in 7.0 mi WSW 10.4 mph - N/A   Scattered Clouds
8:56 AM 41.0 °F 33.5 °F 35.6 °F 81% 30.12 in 7.0 mi WSW 13.8 mph - N/A   Mostly Cloudy
9:16 AM 41.0 °F 33.5 °F 35.6 °F 81% 30.12 in 7.0 mi WSW 13.8 mph - N/A   Mostly Cloudy
9:36 AM 39.2 °F 32.0 °F 35.6 °F 87% 30.13 in 7.0 mi WSW 11.5 mph - N/A   Scattered Clouds
9:56 AM 41.0 °F 33.9 °F 35.6 °F 81% 30.13 in 6.0 mi WSW 12.7 mph - N/A   Mostly Cloudy
10:16 AM 41.0 °F 33.9 °F 35.6 °F 81% 30.13 in 6.0 mi West 12.7 mph - N/A   Overcast
10:36 AM 41.0 °F 33.1 °F 35.6 °F 81% 30.14 in 7.0 mi WSW 15.0 mph - N/A   Partly Cloudy
10:56 AM 41.0 °F 33.5 °F 35.6 °F 81% 30.14 in 8.0 mi WSW 13.8 mph - N/A   Clear
11:16 AM 41.0 °F 33.1 °F 35.6 °F 81% 30.14 in 7.0 mi WSW 15.0 mph - N/A   Clear
11:36 AM 42.8 °F 37.0 °F 35.6 °F 76% 30.14 in 7.0 mi WSW 10.4 mph - N/A   Clear
11:56 AM 42.8 °F 35.4 °F 37.4 °F 81% 30.15 in 7.0 mi SW 15.0 mph - N/A   Partly Cloudy
12:16 PM 42.8 °F 35.1 °F 37.4 °F 81% 30.14 in 8.0 mi WSW 16.1 mph - N/A   Mostly Cloudy
12:36 PM 42.8 °F 33.8 °F 35.6 °F 76% 30.14 in 5.0 mi West 21.9 mph 32.2 mph N/A   Mostly Cloudy
12:56 PM 42.8 °F 34.8 °F 35.6 °F 76% 30.16 in 10.0 mi WSW 17.3 mph - N/A   Overcast
1:16 PM 42.8 °F 34.5 °F 35.6 °F 76% 30.16 in 10.0 mi West 18.4 mph 21.9 mph N/A   Mostly Cloudy
1:36 PM 42.8 °F 34.0 °F 35.6 °F 76% 30.15 in 10.0 mi WSW 20.7 mph 25.3 mph N/A   Mostly Cloudy
1:56 PM 42.8 °F 33.3 °F 33.8 °F 70% 30.15 in 10.0 mi WSW 24.2 mph 29.9 mph N/A   Clear
2:16 PM 42.8 °F 34.3 °F 35.6 °F 76% 30.16 in 10.0 mi West 19.6 mph 28.8 mph N/A   Clear
2:36 PM 41.0 °F 32.5 °F 33.8 °F 76% 30.17 in 10.0 mi West 17.3 mph 27.6 mph N/A   Mostly Cloudy
2:56 PM 39.2 °F 29.0 °F 28.4 °F 65% 30.18 in 8.0 mi WNW 21.9 mph 31.1 mph N/A   Mostly Cloudy
3:16 PM 41.0 °F 31.6 °F 30.2 °F 65% 30.18 in 10.0 mi West 20.7 mph 26.5 mph N/A   Partly Cloudy
3:36 PM 41.0 °F 32.2 °F 30.2 °F 65% 30.19 in 10.0 mi West 18.4 mph - N/A   Clear
3:56 PM 41.0 °F 31.6 °F 30.2 °F 65% 30.19 in 10.0 mi WNW 20.7 mph 24.2 mph N/A   Mostly Cloudy
4:16 PM 41.0 °F 31.6 °F 28.4 °F 61% 30.21 in 10.0 mi WNW 20.7 mph 28.8 mph N/A   Overcast
4:36 PM 39.2 °F 28.7 °F 28.4 °F 65% 30.22 in 10.0 mi WNW 23.0 mph 32.2 mph N/A   Mostly Cloudy
4:56 PM 39.2 °F 28.7 °F 28.4 °F 65% 30.23 in 10.0 mi WNW 23.0 mph 28.8 mph N/A   Partly Cloudy
5:16 PM 39.2 °F 28.5 °F 26.6 °F 61% 30.24 in 10.0 mi West 24.2 mph 29.9 mph N/A   Clear
5:36 PM 39.2 °F 29.0 °F 26.6 °F 61% 30.25 in 10.0 mi West 21.9 mph 32.2 mph N/A   Clear
5:56 PM 39.2 °F 29.8 °F 26.6 °F 61% 30.26 in 10.0 mi West 18.4 mph 28.8 mph N/A   Clear
6:16 PM 39.2 °F 28.7 °F 26.6 °F 61% 30.27 in 10.0 mi West 23.0 mph 26.5 mph N/A   Partly Cloudy
6:36 PM 37.4 °F 27.2 °F 26.6 °F 65% 30.28 in 10.0 mi West 19.6 mph 25.3 mph N/A   Clear
6:56 PM 37.4 °F 27.5 °F 24.8 °F 60% 30.29 in 10.0 mi West 18.4 mph - N/A   Clear
7:16 PM 37.4 °F 28.5 °F 24.8 °F 60% 30.29 in 10.0 mi West 15.0 mph - N/A   Clear
7:36 PM 35.6 °F 27.1 °F 24.8 °F 65% 30.30 in 10.0 mi West 12.7 mph - N/A   Clear
7:56 PM 35.6 °F 28.6 °F 26.6 °F 70% 30.31 in 10.0 mi WSW 9.2 mph - N/A   Clear
8:16 PM 37.4 °F 26.4 °F 28.4 °F 70% 30.32 in 10.0 mi WSW 23.0 mph 26.5 mph N/A   Partly Cloudy
8:36 PM 37.4 °F 27.5 °F 28.4 °F 70% 30.32 in 10.0 mi WSW 18.4 mph 23.0 mph N/A   Partly Cloudy
8:56 PM 37.4 °F 28.2 °F 30.2 °F 75% 30.34 in 10.0 mi West 16.1 mph 24.2 mph N/A   Clear
9:16 PM 37.4 °F 27.5 °F 30.2 °F 75% 30.34 in 10.0 mi WSW 18.4 mph - N/A   Clear
9:36 PM 37.4 °F 25.4 °F 30.2 °F 75% 30.34 in 10.0 mi West 27.6 mph 36.8 mph N/A   Scattered Clouds
9:56 PM 35.6 °F 25.5 °F 30.2 °F 81% 30.36 in 10.0 mi West 17.3 mph 32.2 mph N/A   Mostly Cloudy
10:16 PM 35.6 °F 27.1 °F 30.2 °F 81% 30.36 in 10.0 mi West 12.7 mph - N/A   Scattered Clouds
10:36 PM 35.6 °F 27.5 °F 30.2 °F 81% 30.37 in 10.0 mi West 11.5 mph 19.6 mph N/A   Clear
10:56 PM 35.6 °F 25.5 °F 30.2 °F 81% 30.38 in 10.0 mi WSW 17.3 mph - N/A   Scattered Clouds
11:16 PM 35.6 °F 25.2 °F 28.4 °F 75% 30.39 in 10.0 mi West 18.4 mph 24.2 mph N/A   Mostly Cloudy
11:36 PM 37.4 °F 28.9 °F 26.6 °F 65% 30.40 in 10.0 mi West 13.8 mph - N/A   Scattered Clouds
11:56 PM 37.4 °F 27.8 °F 26.6 °F 65% 30.42 in 10.0 mi West 17.3 mph 24.2 mph N/A   Scattered Clouds